To NAV CANADA Home Page Login to a new session Search on AWWS site Feedback and Comments Disclaimer Vers la page française équivalente Tips FAQ What's new on the site To the Forecasts and Observations / NOTAM section To "File a Flight Plan" website Publications and other links Update of the User's profile FIC Telephone Numbers My Weather Data Folder Route Weather Data Regional Weather Data Local Weather Data To the Forecasts and Observations / NOTAM section
Request Generated 02/24/2017 at 03:38:38 UTC . Weather information available at that time is displayed.

METAR/TAF

THOMPSON/MB    

METAR CYTH 240300Z 02004KT 15SM SCT170 BKN220 M23/M26 A3025 RMK
AC3CI3 SLP278=
METAR CYTH 240200Z 01004KT 15SM BKN220 M21/M23 A3024 RMK CI5 SLP272=
METAR CYTH 240100Z 03005KT 15SM SCT220 M18/M21 A3024 RMK CI4 SLP272=

TAF CYTH 240038Z 2401/2413 05005KT P6SM BKN220
RMK NXT FCST BY 240700Z=
Your time UTC time
Weather data provided by Environment Canada and NAV CANADA